createdAt,value
2018-07-24T00:01:11.419Z,73.90
2018-07-24T00:03:39.747Z,74.20
2018-07-24T00:06:07.301Z,73.90
2018-07-24T00:08:34.881Z,74.50
2018-07-24T00:11:02.762Z,75.10
2018-07-24T00:13:30.227Z,75.70
2018-07-24T00:15:57.857Z,76.00
2018-07-24T00:18:25.388Z,76.30
2018-07-24T00:20:53.709Z,77.00
2018-07-24T00:23:21.315Z,76.90
2018-07-24T00:25:49.633Z,77.50
2018-07-24T00:28:17.187Z,77.50
2018-07-24T00:30:44.778Z,77.50
2018-07-24T00:33:12.328Z,77.50
2018-07-24T00:35:39.894Z,77.50
2018-07-24T00:38:07.484Z,77.50
2018-07-24T00:40:35.052Z,77.60
2018-07-24T00:43:02.601Z,77.70
2018-07-24T00:45:30.647Z,78.10
2018-07-24T00:47:58.207Z,77.60
2018-07-24T00:50:25.767Z,77.10
2018-07-24T00:52:53.348Z,77.20
2018-07-24T00:55:20.904Z,77.50
2018-07-24T00:57:48.465Z,77.60
2018-07-24T01:00:16.049Z,77.80
2018-07-24T01:02:43.608Z,78.50
2018-07-24T01:05:11.159Z,78.10
2018-07-24T01:07:38.776Z,78.40
2018-07-24T01:10:06.331Z,79.20
2018-07-24T01:12:33.891Z,78.70
2018-07-24T01:15:01.480Z,78.80
2018-07-24T01:17:29.034Z,79.00
2018-07-24T01:19:56.585Z,79.10
2018-07-24T01:22:24.174Z,79.20
2018-07-24T01:24:51.724Z,79.30
2018-07-24T01:27:19.283Z,79.40
2018-07-24T01:29:46.892Z,79.40
2018-07-24T01:32:15.218Z,80.30
2018-07-24T01:34:42.781Z,79.70
2018-07-24T01:37:10.373Z,79.80
2018-07-24T01:39:37.940Z,80.00
2018-07-24T01:42:05.499Z,80.20
2018-07-24T01:44:33.094Z,80.10
2018-07-24T01:47:01.427Z,80.60
2018-07-24T01:49:28.984Z,80.60
2018-07-24T01:51:56.600Z,80.20
2018-07-24T01:54:24.162Z,79.70
2018-07-24T01:56:51.722Z,79.80
2018-07-24T01:59:19.329Z,80.10
2018-07-24T02:01:46.885Z,80.60
2018-07-24T02:04:14.451Z,81.10
2018-07-24T02:06:42.040Z,81.60
2018-07-24T02:09:09.605Z,82.00
2018-07-24T02:11:37.197Z,82.50
2018-07-24T02:14:04.787Z,82.90
2018-07-24T02:16:32.360Z,83.40
2018-07-24T02:18:59.923Z,84.40
2018-07-24T02:21:27.521Z,83.90
2018-07-24T02:23:55.846Z,83.90
2018-07-24T02:26:23.417Z,83.90
2018-07-24T02:28:51.064Z,84.50
2018-07-24T02:31:18.622Z,83.70
2018-07-24T02:33:46.185Z,83.80
2018-07-24T02:36:13.818Z,83.60
2018-07-24T02:38:41.369Z,83.60
2018-07-24T02:41:09.706Z,83.60
2018-07-24T02:43:37.298Z,83.50
2018-07-24T02:46:04.861Z,83.60
2018-07-24T02:48:32.421Z,83.60
2018-07-24T02:51:00.012Z,83.70
2018-07-24T02:53:28.335Z,83.80
2018-07-24T02:55:55.890Z,83.80
2018-07-24T02:58:23.507Z,83.90
2018-07-24T03:00:51.841Z,84.50
2018-07-24T03:03:19.410Z,84.40
2018-07-24T03:05:47.009Z,84.60
2018-07-24T03:08:14.567Z,84.60
2018-07-24T03:10:42.129Z,84.60
2018-07-24T03:13:10.492Z,85.00
2018-07-24T03:15:38.053Z,85.00
2018-07-24T03:18:05.612Z,84.80
2018-07-24T03:20:33.656Z,85.00
2018-07-24T03:23:01.221Z,85.00
2018-07-24T03:25:28.781Z,85.10
2018-07-24T03:27:56.374Z,85.30
2018-07-24T03:30:24.705Z,85.90
2018-07-24T03:32:52.272Z,85.80
2018-07-24T03:35:19.865Z,85.90
2018-07-24T03:37:47.432Z,86.00
2018-07-24T03:40:14.999Z,86.00
2018-07-24T03:42:42.937Z,86.00
2018-07-24T03:45:10.553Z,85.20
2018-07-24T03:47:38.064Z,85.80
2018-07-24T03:50:05.659Z,85.50
2018-07-24T03:52:33.993Z,85.80
2018-07-24T03:55:01.554Z,85.80
2018-07-24T03:57:29.146Z,85.00
2018-07-24T03:59:56.716Z,85.20
2018-07-24T04:02:25.109Z,85.20
2018-07-24T04:04:52.655Z,85.70
2018-07-24T04:07:20.214Z,85.90
2018-07-24T04:09:48.056Z,86.20
2018-07-24T04:12:15.650Z,86.30
2018-07-24T04:14:43.983Z,86.40
2018-07-24T04:17:11.548Z,86.40
2018-07-24T04:19:39.146Z,86.40
2018-07-24T04:22:06.710Z,86.40
2018-07-24T04:24:35.040Z,86.30
2018-07-24T04:27:02.650Z,86.60
2018-07-24T04:29:30.205Z,86.60
2018-07-24T04:31:57.770Z,86.70
2018-07-24T04:34:25.380Z,87.00
2018-07-24T04:36:52.929Z,87.30
2018-07-24T04:39:20.498Z,87.70
2018-07-24T04:41:48.094Z,88.10
2018-07-24T04:44:15.656Z,88.20
2018-07-24T04:46:43.218Z,88.30
2018-07-24T04:49:10.841Z,88.20
2018-07-24T04:51:38.402Z,88.40
2018-07-24T04:54:05.965Z,87.50
2018-07-24T04:56:33.559Z,87.20
2018-07-24T04:59:01.139Z,87.20
2018-07-24T05:01:28.694Z,87.30
2018-07-24T05:03:56.345Z,87.70
2018-07-24T05:06:23.903Z,87.00
2018-07-24T05:08:51.469Z,86.40
2018-07-24T05:11:19.062Z,86.40
2018-07-24T05:13:47.389Z,85.40
2018-07-24T05:16:14.957Z,86.00
2018-07-24T05:18:42.550Z,85.40
2018-07-24T05:21:10.126Z,85.30
2018-07-24T05:23:38.509Z,85.40
2018-07-24T05:26:06.979Z,85.30
2018-07-24T05:28:34.502Z,85.40
2018-07-24T05:31:02.069Z,85.50
2018-07-24T05:33:29.663Z,85.40
2018-07-24T05:35:57.221Z,85.40
2018-07-24T05:38:24.783Z,85.40
2018-07-24T05:40:52.387Z,85.50
2018-07-24T05:43:19.946Z,85.70
2018-07-24T05:45:47.505Z,85.70
2018-07-24T05:48:15.117Z,85.80
2018-07-24T05:50:42.682Z,85.80
2018-07-24T05:53:10.244Z,85.80
2018-07-24T05:55:37.862Z,85.60
2018-07-24T05:58:05.422Z,85.50
2018-07-24T06:00:32.988Z,85.00
2018-07-24T06:03:00.631Z,84.30
2018-07-24T06:05:28.191Z,84.10
2018-07-24T06:07:55.755Z,84.10
2018-07-24T06:10:23.362Z,83.90
2018-07-24T06:12:50.929Z,83.70
2018-07-24T06:15:18.498Z,83.60
2018-07-24T06:17:46.112Z,83.60
2018-07-24T06:20:13.672Z,83.40
2018-07-24T06:22:43.922Z,83.30
2018-07-24T06:25:11.527Z,83.10
2018-07-24T06:27:39.867Z,82.70
2018-07-24T06:30:07.433Z,82.70
2018-07-24T06:32:35.078Z,82.40
2018-07-24T06:35:02.696Z,82.20
2018-07-24T06:37:30.211Z,81.90
2018-07-24T06:39:57.850Z,81.10
2018-07-24T06:42:25.414Z,80.80
2018-07-24T06:44:52.979Z,80.30
2018-07-24T06:47:20.595Z,79.60
2018-07-24T06:49:48.921Z,79.00
2018-07-24T06:52:16.490Z,79.00
2018-07-24T06:54:44.098Z,78.80
2018-07-24T06:57:12.429Z,78.30
2018-07-24T06:59:39.990Z,78.30
2018-07-24T07:02:08.508Z,78.20
2018-07-24T07:04:36.040Z,78.00
2018-07-24T07:07:03.614Z,77.60
2018-07-24T07:09:31.217Z,77.30
2018-07-24T07:11:58.784Z,77.10
2018-07-24T07:14:26.339Z,77.00
2018-07-24T07:16:53.951Z,76.50
2018-07-24T07:19:21.512Z,76.10
2018-07-24T07:21:49.080Z,75.70
2018-07-24T07:24:16.696Z,75.20
2018-07-24T07:26:44.262Z,74.50
2018-07-24T07:29:11.858Z,74.10
2018-07-24T07:31:39.432Z,73.70
2018-07-24T07:34:06.989Z,73.60
2018-07-24T07:36:34.556Z,73.40
2018-07-24T07:39:02.861Z,73.10
2018-07-24T07:41:31.195Z,71.50
2018-07-24T07:43:59.069Z,71.50
2018-07-24T07:46:26.673Z,71.00
2018-07-24T07:48:54.233Z,70.70
2018-07-24T07:51:22.621Z,70.10
2018-07-24T07:53:50.193Z,69.90
2018-07-24T07:56:17.757Z,69.70
2018-07-24T07:58:45.361Z,69.70
2018-07-24T08:01:12.964Z,69.60
2018-07-24T08:03:40.526Z,69.10
2018-07-24T08:06:08.102Z,68.70
2018-07-24T08:08:35.698Z,68.20
2018-07-24T08:11:03.262Z,67.50
2018-07-24T08:13:30.823Z,66.80
2018-07-24T08:15:58.478Z,66.80
2018-07-24T08:18:26.047Z,66.40
2018-07-24T08:20:53.608Z,66.10
2018-07-24T08:23:21.212Z,65.50
2018-07-24T08:25:49.541Z,64.40
2018-07-24T08:28:17.206Z,64.30
2018-07-24T08:30:44.712Z,63.70
2018-07-24T08:33:13.044Z,62.90
2018-07-24T08:35:40.599Z,62.80
2018-07-24T08:38:08.201Z,62.30
2018-07-24T08:40:35.762Z,61.50
2018-07-24T08:43:03.324Z,60.70
2018-07-24T08:45:30.947Z,60.00
2018-07-24T08:47:58.560Z,59.50
2018-07-24T08:50:26.068Z,59.10
2018-07-24T08:52:53.730Z,58.90
2018-07-24T08:55:22.382Z,58.00
2018-07-24T08:57:49.596Z,57.90
2018-07-24T09:00:17.200Z,57.40
2018-07-24T09:02:44.756Z,57.60
2018-07-24T09:05:12.316Z,56.50
2018-07-24T09:07:40.950Z,55.40
2018-07-24T09:10:08.532Z,55.50
2018-07-24T09:12:36.063Z,55.00
2018-07-24T09:15:03.710Z,54.60
2018-07-24T09:17:31.265Z,53.50
2018-07-24T09:19:58.822Z,53.60
2018-07-24T09:22:26.824Z,53.60
2018-07-24T09:24:54.385Z,53.50
2018-07-24T09:27:22.039Z,53.60
2018-07-24T09:29:49.616Z,53.40
2018-07-24T09:32:17.174Z,52.80
2018-07-24T09:34:44.734Z,52.10
2018-07-24T09:37:12.329Z,50.60
2018-07-24T09:39:39.880Z,50.00
2018-07-24T09:42:07.449Z,50.00
2018-07-24T09:44:35.058Z,49.80
2018-07-24T09:47:02.625Z,50.00
2018-07-24T09:49:30.177Z,49.50
2018-07-24T09:51:57.777Z,49.30
2018-07-24T09:54:25.336Z,49.10
2018-07-24T09:56:52.889Z,48.50
2018-07-24T09:59:20.611Z,47.90
2018-07-24T10:01:48.115Z,47.10
2018-07-24T10:04:15.674Z,46.20
2018-07-24T10:06:43.352Z,46.30
2018-07-24T10:09:10.870Z,46.10
2018-07-24T10:11:38.420Z,45.90
2018-07-24T10:14:06.041Z,45.70
2018-07-24T10:16:33.597Z,45.70
2018-07-24T10:19:01.166Z,45.50
2018-07-24T10:21:28.928Z,45.10
2018-07-24T10:23:56.486Z,44.90
2018-07-24T10:26:24.049Z,44.60
2018-07-24T10:28:51.659Z,44.10
2018-07-24T10:31:19.206Z,43.40
2018-07-24T10:33:46.768Z,43.60
2018-07-24T10:36:14.355Z,43.60
2018-07-24T10:38:41.918Z,43.40
2018-07-24T10:41:09.471Z,42.70
2018-07-24T10:43:37.666Z,42.20
2018-07-24T10:46:05.241Z,41.80
2018-07-24T10:48:32.785Z,41.40
2018-07-24T10:51:00.394Z,41.10
2018-07-24T10:53:28.718Z,40.40
2018-07-24T10:55:56.273Z,40.40
2018-07-24T10:58:23.873Z,40.30
2018-07-24T11:00:51.439Z,39.90
2018-07-24T11:03:19.001Z,39.80
2018-07-24T11:05:47.042Z,39.30
2018-07-24T11:08:14.597Z,39.10
2018-07-24T11:10:42.149Z,39.20
2018-07-24T11:13:09.787Z,38.90
2018-07-24T11:15:37.342Z,38.60
2018-07-24T11:18:05.668Z,38.00
2018-07-24T11:20:33.274Z,37.90
2018-07-24T11:23:01.739Z,38.20
2018-07-24T11:25:29.140Z,37.40
2018-07-24T11:27:56.740Z,37.30
2018-07-24T11:30:24.291Z,37.20
2018-07-24T11:32:51.883Z,37.10
2018-07-24T11:35:20.020Z,36.90
2018-07-24T11:37:47.574Z,37.00
2018-07-24T11:40:15.150Z,37.20
2018-07-24T11:42:42.749Z,36.30
2018-07-24T11:45:10.298Z,36.30
2018-07-24T11:47:37.860Z,36.20
2018-07-24T11:50:05.498Z,36.10
2018-07-24T11:52:33.051Z,36.00
2018-07-24T11:55:00.610Z,35.40
2018-07-24T11:57:28.584Z,35.20
2018-07-24T11:59:56.137Z,35.30
2018-07-24T12:02:23.695Z,35.40
2018-07-24T12:04:51.337Z,35.40
2018-07-24T12:07:18.853Z,35.40
2018-07-24T12:09:46.403Z,35.40
2018-07-24T12:12:14.769Z,35.30
2018-07-24T12:14:42.382Z,35.00
2018-07-24T12:17:09.875Z,34.60
2018-07-24T12:19:37.487Z,34.80
2018-07-24T12:22:05.033Z,35.10
2018-07-24T12:24:32.589Z,34.90
2018-07-24T12:27:00.236Z,35.30
2018-07-24T12:29:28.775Z,35.10
2018-07-24T12:31:56.297Z,35.10
2018-07-24T12:34:23.921Z,35.00
2018-07-24T12:36:51.476Z,35.30
2018-07-24T12:39:19.030Z,35.20
2018-07-24T12:41:46.672Z,35.20
2018-07-24T12:44:14.995Z,35.50
2018-07-24T12:46:42.551Z,34.70
2018-07-24T12:49:10.171Z,34.50
2018-07-24T12:51:38.485Z,34.50
2018-07-24T12:54:06.079Z,34.40
2018-07-24T12:56:33.712Z,34.50
2018-07-24T12:59:01.264Z,34.00
2018-07-24T13:01:28.819Z,33.60
2018-07-24T13:03:56.461Z,33.40
2018-07-24T13:06:23.992Z,33.50
2018-07-24T13:08:51.549Z,33.40
2018-07-24T13:11:19.137Z,33.10
2018-07-24T13:13:46.698Z,33.30
2018-07-24T13:16:14.246Z,33.00
2018-07-24T13:18:42.295Z,32.40
2018-07-24T13:21:09.873Z,32.40
2018-07-24T13:23:37.423Z,32.00
2018-07-24T13:26:05.024Z,32.10
2018-07-24T13:28:33.339Z,32.30
2018-07-24T13:31:00.896Z,31.60
2018-07-24T13:33:29.093Z,31.80
2018-07-24T13:35:56.638Z,32.10
2018-07-24T13:38:24.202Z,32.20
2018-07-24T13:40:51.804Z,32.60
2018-07-24T13:43:19.354Z,32.80
2018-07-24T13:45:46.902Z,32.20
2018-07-24T13:48:14.512Z,31.90
2018-07-24T13:50:42.831Z,30.60
2018-07-24T13:53:10.386Z,30.50
2018-07-24T13:55:38.016Z,30.50
2018-07-24T13:58:06.350Z,31.90
2018-07-24T14:00:33.903Z,31.90
2018-07-24T14:03:01.516Z,31.60
2018-07-24T14:05:29.868Z,31.60
2018-07-24T14:07:57.393Z,31.50
2018-07-24T14:10:25.381Z,31.70
2018-07-24T14:12:52.945Z,31.00
2018-07-24T14:15:20.493Z,30.70
2018-07-24T14:17:48.097Z,30.50
2018-07-24T14:20:16.420Z,30.20
2018-07-24T14:22:43.972Z,29.90
2018-07-24T14:25:11.580Z,30.00
2018-07-24T14:27:39.476Z,30.00
2018-07-24T14:30:06.997Z,30.10
2018-07-24T14:32:34.591Z,29.80
2018-07-24T14:35:02.921Z,29.60
2018-07-24T14:37:30.482Z,29.60
2018-07-24T14:39:58.094Z,29.80
2018-07-24T14:42:25.648Z,29.50
2018-07-24T14:44:53.208Z,29.70
2018-07-24T14:47:20.851Z,29.60
2018-07-24T14:49:48.402Z,29.70
2018-07-24T14:52:15.967Z,30.00
2018-07-24T14:54:44.153Z,30.00
2018-07-24T14:57:11.711Z,29.90
2018-07-24T14:59:39.274Z,30.00
2018-07-24T15:02:06.989Z,30.90
2018-07-24T15:04:34.607Z,29.70
2018-07-24T15:07:02.092Z,29.60
2018-07-24T15:09:31.174Z,30.10
2018-07-24T15:11:58.723Z,30.10
2018-07-24T15:14:26.309Z,30.20
2018-07-24T15:16:53.919Z,30.50
2018-07-24T15:19:21.486Z,30.70
2018-07-24T15:21:49.073Z,30.70
2018-07-24T15:24:17.228Z,30.70
2018-07-24T15:26:44.786Z,31.00
2018-07-24T15:29:12.372Z,31.70
2018-07-24T15:31:39.951Z,33.30
2018-07-24T15:34:14.411Z,34.60
2018-07-24T15:36:41.911Z,34.50
2018-07-24T15:39:09.558Z,34.20
2018-07-24T15:41:37.722Z,33.80
2018-07-24T15:44:05.284Z,34.00
2018-07-24T15:46:32.890Z,34.00
2018-07-24T15:49:01.215Z,32.30
2018-07-24T15:51:29.634Z,32.10
2018-07-24T15:53:57.242Z,31.10
2018-07-24T15:56:24.796Z,30.60
2018-07-24T15:58:52.347Z,30.10
2018-07-24T16:01:20.367Z,29.90
2018-07-24T16:03:47.921Z,29.70
2018-07-24T16:06:15.549Z,29.40
2018-07-24T16:08:43.451Z,28.90
2018-07-24T16:11:11.010Z,28.50
2018-07-24T16:13:38.570Z,28.30
2018-07-24T16:16:07.058Z,28.00
2018-07-24T16:18:34.606Z,27.70
2018-07-24T16:21:02.158Z,27.30
2018-07-24T16:23:29.769Z,27.40
2018-07-24T16:25:57.329Z,27.30
2018-07-24T16:28:24.884Z,27.20
2018-07-24T16:30:52.484Z,27.20
2018-07-24T16:33:20.040Z,27.00
2018-07-24T16:35:48.360Z,26.70
2018-07-24T16:38:16.006Z,26.70
2018-07-24T16:40:43.559Z,26.80
2018-07-24T16:43:11.179Z,27.00
2018-07-24T16:45:41.654Z,26.90
2018-07-24T16:48:09.213Z,26.90
2018-07-24T16:50:36.774Z,27.10
2018-07-24T16:53:04.377Z,27.70
2018-07-24T16:55:31.933Z,27.70
2018-07-24T16:57:59.535Z,27.70
2018-07-24T17:00:27.085Z,27.70
2018-07-24T17:02:55.619Z,27.50
2018-07-24T17:05:23.111Z,27.50
2018-07-24T17:07:51.186Z,27.40
2018-07-24T17:10:18.759Z,27.30
2018-07-24T17:12:46.546Z,27.30
2018-07-24T17:15:14.141Z,27.10
2018-07-24T17:17:41.695Z,27.10
2018-07-24T17:20:09.251Z,27.10
2018-07-24T17:22:36.894Z,27.10
2018-07-24T17:25:04.454Z,27.40
2018-07-24T17:27:32.080Z,27.40
2018-07-24T17:29:59.991Z,27.30
2018-07-24T17:32:27.548Z,27.50
2018-07-24T17:34:55.108Z,27.50
2018-07-24T17:37:22.714Z,27.60
2018-07-24T17:39:50.263Z,27.60
2018-07-24T17:42:17.817Z,27.50
2018-07-24T17:44:45.803Z,27.80
2018-07-24T17:47:13.561Z,28.00
2018-07-24T17:49:41.113Z,28.10
2018-07-24T17:52:08.706Z,28.30
2018-07-24T17:54:36.266Z,28.70
2018-07-24T17:57:03.819Z,29.10
2018-07-24T17:59:31.454Z,29.50
2018-07-24T18:01:59.009Z,29.60
2018-07-24T18:04:26.561Z,29.80
2018-07-24T18:06:54.167Z,29.90
2018-07-24T18:09:21.759Z,30.00
2018-07-24T18:11:49.451Z,30.80
2018-07-24T18:14:16.917Z,30.70
2018-07-24T18:16:47.966Z,30.80
2018-07-24T18:19:15.516Z,31.00
2018-07-24T18:21:43.192Z,31.30
2018-07-24T18:24:10.748Z,31.70
2018-07-24T18:26:38.324Z,32.00
2018-07-24T18:29:06.707Z,33.00
2018-07-24T18:31:34.264Z,34.00
2018-07-24T18:34:01.850Z,34.40
2018-07-24T18:36:29.457Z,35.00
2018-07-24T18:38:57.015Z,35.60
2018-07-24T18:41:24.573Z,36.30
2018-07-24T18:43:52.957Z,37.10
2018-07-24T18:46:20.518Z,37.10
2018-07-24T18:48:48.082Z,37.30
2018-07-24T18:51:16.513Z,37.70
2018-07-24T18:53:44.076Z,38.40
2018-07-24T18:56:11.636Z,38.80
2018-07-24T18:58:39.708Z,39.50
2018-07-24T19:01:07.360Z,39.80
2018-07-24T19:03:34.834Z,39.70
2018-07-24T19:06:02.438Z,40.10
2018-07-24T19:08:29.991Z,40.20
2018-07-24T19:10:58.319Z,40.70
2018-07-24T19:13:26.392Z,40.70
2018-07-24T19:15:53.958Z,40.80
2018-07-24T19:18:21.526Z,41.20
2018-07-24T19:20:49.122Z,41.60
2018-07-24T19:23:17.448Z,41.90
2018-07-24T19:25:45.003Z,41.90
2018-07-24T19:28:12.601Z,41.70
2018-07-24T19:30:40.157Z,41.80
2018-07-24T19:33:07.707Z,41.70
2018-07-24T19:35:35.311Z,41.30
2018-07-24T19:38:03.629Z,42.80
2018-07-24T19:40:31.194Z,42.80
2018-07-24T19:42:59.501Z,42.90
2018-07-24T19:45:27.062Z,43.30
2018-07-24T19:47:54.621Z,43.80
2018-07-24T19:50:22.609Z,44.70
2018-07-24T19:52:50.945Z,44.80
2018-07-24T19:55:18.497Z,45.10
2018-07-24T19:57:46.936Z,44.60
2018-07-24T20:00:15.260Z,45.40
2018-07-24T20:02:42.812Z,45.30
2018-07-24T20:05:10.462Z,45.60
2018-07-24T20:07:37.985Z,46.10
2018-07-24T20:10:05.598Z,46.70
2018-07-24T20:12:34.012Z,47.00
2018-07-24T20:15:01.583Z,47.30
2018-07-24T20:17:29.150Z,47.90
2018-07-24T20:19:57.197Z,47.80
2018-07-24T20:22:24.758Z,47.70
2018-07-24T20:24:52.323Z,48.20
2018-07-24T20:27:19.928Z,48.70
2018-07-24T20:29:48.252Z,49.70
2018-07-24T20:32:15.824Z,49.70
2018-07-24T20:34:43.477Z,50.30
2018-07-24T20:37:11.042Z,50.70
2018-07-24T20:39:38.601Z,51.00
2018-07-24T20:42:06.575Z,51.30
2018-07-24T20:44:34.131Z,51.70
2018-07-24T20:47:01.693Z,52.00
2018-07-24T20:49:29.339Z,52.60
2018-07-24T20:51:57.637Z,53.60
2018-07-24T20:54:25.200Z,53.60
2018-07-24T20:56:52.814Z,53.80
2018-07-24T20:59:21.175Z,54.70
2018-07-24T21:01:48.743Z,54.60
2018-07-24T21:04:17.175Z,55.40
2018-07-24T21:06:44.733Z,55.40
2018-07-24T21:09:12.309Z,56.00
2018-07-24T21:11:40.250Z,56.60
2018-07-24T21:14:07.815Z,57.00
2018-07-24T21:16:35.406Z,57.20
2018-07-24T21:19:03.014Z,57.50
2018-07-24T21:21:30.576Z,57.70
2018-07-24T21:23:58.906Z,58.40
2018-07-24T21:26:26.559Z,58.40
2018-07-24T21:28:54.121Z,59.30
2018-07-24T21:31:21.677Z,58.80
2018-07-24T21:33:49.310Z,59.00
2018-07-24T21:36:16.866Z,59.20
2018-07-24T21:38:44.427Z,59.10
2018-07-24T21:41:12.040Z,59.30
2018-07-24T21:43:39.614Z,59.50
2018-07-24T21:46:07.156Z,59.80
2018-07-24T21:48:34.793Z,60.20
2018-07-24T21:51:02.367Z,60.60
2018-07-24T21:53:29.932Z,61.10
2018-07-24T21:55:58.319Z,61.50
2018-07-24T21:58:25.927Z,61.70
2018-07-24T22:00:53.444Z,61.80
2018-07-24T22:03:21.519Z,62.00
2018-07-24T22:05:49.079Z,62.10
2018-07-24T22:08:16.639Z,62.40
2018-07-24T22:10:45.014Z,62.80
2018-07-24T22:13:12.592Z,63.20
2018-07-24T22:15:40.152Z,63.30
2018-07-24T22:18:07.832Z,63.40
2018-07-24T22:20:35.371Z,63.70
2018-07-24T22:23:02.931Z,63.80
2018-07-24T22:25:30.541Z,64.10
2018-07-24T22:27:58.138Z,64.20
2018-07-24T22:30:25.704Z,64.50
2018-07-24T22:32:53.347Z,64.50
2018-07-24T22:35:20.911Z,64.80
2018-07-24T22:37:48.477Z,65.10
2018-07-24T22:40:16.075Z,65.30
2018-07-24T22:42:43.642Z,65.40
2018-07-24T22:45:11.221Z,65.60
2018-07-24T22:47:40.117Z,66.20
2018-07-24T22:50:08.440Z,66.40
2018-07-24T22:52:36.010Z,66.40
2018-07-24T22:55:03.600Z,66.70
2018-07-24T22:57:31.167Z,67.00
2018-07-24T22:59:59.498Z,67.00
2018-07-24T23:02:27.113Z,67.00
2018-07-24T23:04:55.444Z,67.20
2018-07-24T23:07:23.008Z,67.10
2018-07-24T23:09:50.605Z,67.30
2018-07-24T23:12:18.166Z,67.50
2018-07-24T23:14:45.726Z,67.70
2018-07-24T23:17:13.322Z,67.80
2018-07-24T23:19:40.887Z,67.80
2018-07-24T23:22:08.447Z,67.70
2018-07-24T23:24:36.038Z,67.80
2018-07-24T23:27:03.602Z,68.30
2018-07-24T23:29:31.167Z,68.80
2018-07-24T23:31:59.602Z,69.40
2018-07-24T23:34:27.178Z,70.50
2018-07-24T23:36:54.728Z,70.00
2018-07-24T23:39:22.326Z,70.20
2018-07-24T23:41:49.891Z,70.30
2018-07-24T23:44:17.460Z,70.30
2018-07-24T23:46:45.072Z,70.60
2018-07-24T23:49:12.622Z,70.70
2018-07-24T23:51:40.185Z,71.00
2018-07-24T23:54:07.792Z,71.10
2018-07-24T23:56:35.363Z,71.40
2018-07-24T23:59:02.919Z,71.50
